createdAt,value
2016-09-13T00:00:45.501Z,0
2016-09-13T00:01:45.516Z,0
2016-09-13T00:02:45.511Z,0
2016-09-13T00:03:45.493Z,0
2016-09-13T00:04:45.486Z,0
2016-09-13T00:05:46.047Z,0
2016-09-13T00:06:45.510Z,0
2016-09-13T00:07:45.465Z,0
2016-09-13T00:08:45.491Z,0
2016-09-13T00:09:45.477Z,0
2016-09-13T00:10:45.467Z,0
2016-09-13T00:11:45.495Z,0
2016-09-13T00:12:45.463Z,0
2016-09-13T00:13:45.463Z,0
2016-09-13T00:14:45.464Z,0
2016-09-13T00:15:45.472Z,0
2016-09-13T00:16:45.457Z,0
2016-09-13T00:17:45.447Z,0
2016-09-13T00:18:45.447Z,0
2016-09-13T00:19:45.426Z,0
2016-09-13T00:20:45.439Z,0
2016-09-13T00:21:45.472Z,0
2016-09-13T00:22:45.426Z,0
2016-09-13T00:23:45.437Z,0
2016-09-13T00:24:45.620Z,0
2016-09-13T00:25:45.408Z,0
2016-09-13T00:26:45.411Z,0
2016-09-13T00:27:45.412Z,0
2016-09-13T00:28:45.416Z,0
2016-09-13T00:29:45.403Z,0
2016-09-13T00:30:45.427Z,0
2016-09-13T00:31:45.395Z,0
2016-09-13T00:32:45.380Z,0
2016-09-13T00:33:45.394Z,0
2016-09-13T00:34:45.419Z,0
2016-09-13T00:35:45.371Z,0
2016-09-13T00:36:45.378Z,0
2016-09-13T00:37:45.368Z,0
2016-09-13T00:38:45.383Z,0
2016-09-13T00:39:45.376Z,0
2016-09-13T00:40:45.357Z,0
2016-09-13T00:41:45.359Z,0
2016-09-13T00:42:45.364Z,0
2016-09-13T00:43:45.353Z,0
2016-09-13T00:44:45.345Z,0
2016-09-13T00:45:45.660Z,0
2016-09-13T00:46:45.348Z,0
2016-09-13T00:47:45.338Z,0
2016-09-13T00:48:45.335Z,0
2016-09-13T00:49:45.330Z,0
2016-09-13T00:50:45.348Z,0
2016-09-13T00:51:45.638Z,0
2016-09-13T00:52:45.332Z,0
2016-09-13T00:53:45.311Z,0
2016-09-13T00:54:45.312Z,0
2016-09-13T00:55:45.313Z,0
2016-09-13T00:56:45.314Z,0
2016-09-13T00:57:45.299Z,0
2016-09-13T00:58:45.302Z,0
2016-09-13T00:59:45.302Z,0
2016-09-13T01:00:45.302Z,0
2016-09-13T01:01:45.287Z,0
2016-09-13T01:02:45.308Z,0
2016-09-13T01:03:45.283Z,0
2016-09-13T01:04:45.270Z,0
2016-09-13T01:05:45.286Z,0
2016-09-13T01:06:45.279Z,0
2016-09-13T01:07:45.267Z,0
2016-09-13T01:08:45.293Z,0
2016-09-13T01:09:45.262Z,0
2016-09-13T01:10:45.262Z,0
2016-09-13T01:11:45.273Z,0
2016-09-13T01:12:45.239Z,0
2016-09-13T01:13:45.246Z,0
2016-09-13T01:14:45.254Z,0
2016-09-13T01:15:45.234Z,0
2016-09-13T01:16:45.251Z,0
2016-09-13T01:17:45.244Z,0
2016-09-13T01:18:45.249Z,0
2016-09-13T01:19:45.236Z,0
2016-09-13T01:20:45.237Z,0
2016-09-13T01:21:45.247Z,0
2016-09-13T01:22:45.571Z,0
2016-09-13T01:23:45.528Z,0
2016-09-13T01:24:45.225Z,0
2016-09-13T01:25:45.203Z,0
2016-09-13T01:26:45.210Z,0
2016-09-13T01:27:45.230Z,0
2016-09-13T01:28:45.226Z,0
2016-09-13T01:29:45.197Z,0
2016-09-13T01:30:45.210Z,0
2016-09-13T01:31:45.221Z,0
2016-09-13T01:32:45.175Z,0
2016-09-13T01:33:45.195Z,0
2016-09-13T01:34:45.191Z,0
2016-09-13T01:35:45.173Z,0
2016-09-13T01:36:45.522Z,0
2016-09-13T01:37:45.178Z,0
2016-09-13T01:38:45.178Z,0
2016-09-13T01:39:45.171Z,0
2016-09-13T01:40:45.178Z,0
2016-09-13T01:41:45.183Z,0
2016-09-13T01:42:45.156Z,0
2016-09-13T01:43:45.147Z,0
2016-09-13T01:44:45.154Z,0
2016-09-13T01:45:45.155Z,0
2016-09-13T01:46:45.150Z,0
2016-09-13T01:47:45.461Z,0
2016-09-13T01:48:45.140Z,0
2016-09-13T01:49:45.460Z,0
2016-09-13T01:50:45.147Z,0
2016-09-13T01:51:45.157Z,0
2016-09-13T01:52:45.122Z,0
2016-09-13T01:53:45.126Z,0
2016-09-13T01:54:45.142Z,0
2016-09-13T01:55:45.128Z,0
2016-09-13T01:56:45.434Z,0
2016-09-13T01:57:45.128Z,0
2016-09-13T01:58:45.112Z,0
2016-09-13T01:59:45.115Z,0
2016-09-13T02:00:45.120Z,0
2016-09-13T02:01:45.429Z,0
2016-09-13T02:02:45.095Z,0
2016-09-13T02:03:45.093Z,0
2016-09-13T02:04:45.099Z,0
2016-09-13T02:05:45.091Z,0
2016-09-13T02:06:45.127Z,0
2016-09-13T02:07:45.080Z,0
2016-09-13T02:08:45.076Z,0
2016-09-13T02:09:45.074Z,0
2016-09-13T02:10:45.093Z,0
2016-09-13T02:11:45.089Z,0
2016-09-13T02:12:45.072Z,0
2016-09-13T02:13:45.105Z,0
2016-09-13T02:14:45.052Z,0
2016-09-13T02:15:45.068Z,0
2016-09-13T02:16:45.050Z,0
2016-09-13T02:17:45.054Z,0
2016-09-13T02:18:45.047Z,0
2016-09-13T02:19:45.063Z,0
2016-09-13T02:20:45.059Z,0
2016-09-13T02:21:45.065Z,0
2016-09-13T02:22:45.027Z,0
2016-09-13T02:23:45.031Z,0
2016-09-13T02:24:45.022Z,0
2016-09-13T02:25:45.031Z,0
2016-09-13T02:26:45.021Z,0
2016-09-13T02:27:45.008Z,0
2016-09-13T02:28:45.016Z,0
2016-09-13T02:29:45.037Z,0
2016-09-13T02:30:45.026Z,0
2016-09-13T02:31:45.006Z,0
2016-09-13T02:32:45.005Z,0
2016-09-13T02:33:45.003Z,0
2016-09-13T02:34:44.997Z,0
2016-09-13T02:35:45.001Z,0
2016-09-13T02:36:45.000Z,0
2016-09-13T02:37:44.978Z,0
2016-09-13T02:38:45.291Z,0
2016-09-13T02:39:44.993Z,0
2016-09-13T02:40:44.985Z,0
2016-09-13T02:41:45.001Z,0
2016-09-13T02:42:44.968Z,0
2016-09-13T02:43:44.964Z,0
2016-09-13T02:44:44.966Z,0
2016-09-13T02:45:44.963Z,0
2016-09-13T02:46:44.955Z,0
2016-09-13T02:47:45.271Z,0
2016-09-13T02:48:44.956Z,0
2016-09-13T02:49:44.963Z,0
2016-09-13T02:50:44.951Z,0
2016-09-13T02:51:44.948Z,0
2016-09-13T02:52:44.939Z,0
2016-09-13T02:53:44.935Z,0
2016-09-13T02:54:44.926Z,0
2016-09-13T02:55:44.933Z,0
2016-09-13T02:56:44.921Z,0
2016-09-13T02:57:45.238Z,0
2016-09-13T02:58:44.925Z,0
2016-09-13T02:59:44.943Z,0
2016-09-13T03:00:44.907Z,0
2016-09-13T03:01:44.927Z,0
2016-09-13T03:02:44.894Z,0
2016-09-13T03:03:44.902Z,0
2016-09-13T03:04:44.918Z,0
2016-09-13T03:05:44.910Z,0
2016-09-13T03:06:44.900Z,0
2016-09-13T03:07:45.206Z,0
2016-09-13T03:08:44.896Z,0
2016-09-13T03:09:44.883Z,0
2016-09-13T03:10:44.875Z,0
2016-09-13T03:11:45.548Z,0
2016-09-13T03:12:44.862Z,0
2016-09-13T03:13:44.869Z,0
2016-09-13T03:14:44.870Z,0
2016-09-13T03:15:44.875Z,0
2016-09-13T03:16:44.856Z,0
2016-09-13T03:17:44.862Z,0
2016-09-13T03:18:44.918Z,0
2016-09-13T03:19:44.868Z,0
2016-09-13T03:20:44.853Z,0
2016-09-13T03:21:44.865Z,0
2016-09-13T03:22:44.827Z,0
2016-09-13T03:23:44.833Z,0
2016-09-13T03:24:44.831Z,0
2016-09-13T03:25:44.840Z,0
2016-09-13T03:26:44.825Z,0
2016-09-13T03:27:44.834Z,0
2016-09-13T03:28:44.840Z,0
2016-09-13T03:29:44.844Z,0
2016-09-13T03:30:44.811Z,0
2016-09-13T03:31:44.818Z,0
2016-09-13T03:32:44.802Z,0
2016-09-13T03:33:44.803Z,0
2016-09-13T03:34:44.803Z,0
2016-09-13T03:35:45.102Z,0
2016-09-13T03:36:44.799Z,0
2016-09-13T03:37:44.801Z,0
2016-09-13T03:38:44.806Z,0
2016-09-13T03:39:44.788Z,0
2016-09-13T03:40:44.774Z,0
2016-09-13T03:41:44.785Z,0
2016-09-13T03:42:44.777Z,0
2016-09-13T03:43:44.802Z,0
2016-09-13T03:44:44.768Z,0
2016-09-13T03:45:44.757Z,0
2016-09-13T03:46:45.412Z,0
2016-09-13T03:47:44.768Z,0
2016-09-13T03:48:44.758Z,0
2016-09-13T03:49:44.753Z,0
2016-09-13T03:50:45.058Z,0
2016-09-13T03:51:44.751Z,0
2016-09-13T03:52:44.737Z,0
2016-09-13T03:53:44.738Z,0
2016-09-13T03:54:44.723Z,0
2016-09-13T03:55:44.729Z,0
2016-09-13T03:56:44.729Z,0
2016-09-13T03:57:44.737Z,0
2016-09-13T03:58:45.044Z,0
2016-09-13T03:59:44.709Z,0
2016-09-13T04:00:44.718Z,0
2016-09-13T04:01:45.019Z,0
2016-09-13T04:02:44.689Z,0
2016-09-13T04:03:44.694Z,0
2016-09-13T04:04:44.691Z,0
2016-09-13T04:05:44.695Z,0
2016-09-13T04:06:44.695Z,0
2016-09-13T04:07:44.710Z,0
2016-09-13T04:08:44.673Z,0
2016-09-13T04:09:44.996Z,0
2016-09-13T04:10:45.041Z,0
2016-09-13T04:11:44.676Z,0
2016-09-13T04:12:44.673Z,0
2016-09-13T04:13:44.653Z,0
2016-09-13T04:14:44.664Z,0
2016-09-13T04:15:44.651Z,0
2016-09-13T04:16:44.650Z,0
2016-09-13T04:17:44.639Z,0
2016-09-13T04:18:44.700Z,0
2016-09-13T04:19:44.639Z,0
2016-09-13T04:20:44.625Z,0
2016-09-13T04:21:44.641Z,0
2016-09-13T04:22:44.626Z,0
2016-09-13T04:23:44.628Z,0
2016-09-13T04:24:44.650Z,0
2016-09-13T04:25:44.624Z,0
2016-09-13T04:26:44.610Z,0
2016-09-13T04:27:44.609Z,0
2016-09-13T04:28:44.618Z,0
2016-09-13T04:29:44.933Z,0
2016-09-13T04:30:44.606Z,0
2016-09-13T04:31:44.590Z,0
2016-09-13T04:32:44.587Z,0
2016-09-13T04:33:44.602Z,0
2016-09-13T04:34:44.601Z,0
2016-09-13T04:35:44.568Z,0
2016-09-13T04:36:44.567Z,0
2016-09-13T04:37:44.576Z,0
2016-09-13T04:38:44.573Z,0
2016-09-13T04:39:44.559Z,0
2016-09-13T04:40:44.562Z,5
2016-09-13T04:41:44.581Z,5
2016-09-13T04:42:44.547Z,5
2016-09-13T04:43:44.567Z,5
2016-09-13T04:44:44.573Z,5
2016-09-13T04:45:44.536Z,5
2016-09-13T04:46:44.533Z,5
2016-09-13T04:47:44.531Z,5
2016-09-13T04:48:44.528Z,10
2016-09-13T04:49:44.518Z,10
2016-09-13T04:50:44.511Z,10
2016-09-13T04:51:44.836Z,10
2016-09-13T04:52:44.527Z,10
2016-09-13T04:53:44.500Z,10
2016-09-13T04:54:44.496Z,15
2016-09-13T04:55:44.502Z,15
2016-09-13T04:56:44.489Z,15
2016-09-13T04:57:44.491Z,15
2016-09-13T04:58:44.483Z,15
2016-09-13T04:59:44.475Z,20
2016-09-13T05:00:44.485Z,20
2016-09-13T05:01:44.490Z,20
2016-09-13T05:02:44.470Z,20
2016-09-13T05:03:44.453Z,20
2016-09-13T05:04:44.458Z,25
2016-09-13T05:05:44.447Z,25
2016-09-13T05:06:44.609Z,25
2016-09-13T05:07:44.486Z,25
2016-09-13T05:08:44.440Z,30
2016-09-13T05:09:44.441Z,30
2016-09-13T05:10:44.760Z,30
2016-09-13T05:11:44.450Z,30
2016-09-13T05:12:44.424Z,30
2016-09-13T05:13:44.426Z,35
2016-09-13T05:14:44.418Z,35
2016-09-13T05:15:44.604Z,35
2016-09-13T05:16:44.414Z,35
2016-09-13T05:17:44.405Z,35
2016-09-13T05:18:44.452Z,40
2016-09-13T05:19:44.453Z,40
2016-09-13T05:20:44.392Z,40
2016-09-13T05:21:44.702Z,40
2016-09-13T05:22:44.391Z,45
2016-09-13T05:23:44.387Z,45
2016-09-13T05:24:44.383Z,45
2016-09-13T05:25:44.703Z,45
2016-09-13T05:26:44.681Z,45
2016-09-13T05:27:44.373Z,50
2016-09-13T05:28:44.378Z,50
2016-09-13T05:29:44.381Z,50
2016-09-13T05:30:44.359Z,50
2016-09-13T05:31:44.352Z,50
2016-09-13T05:32:44.344Z,55
2016-09-13T05:33:44.654Z,55
2016-09-13T05:34:44.365Z,55
2016-09-13T05:35:44.359Z,55
2016-09-13T05:36:44.341Z,55
2016-09-13T05:37:44.351Z,60
2016-09-13T05:38:44.340Z,60
2016-09-13T05:39:44.330Z,60
2016-09-13T05:40:44.325Z,60
2016-09-13T05:41:44.324Z,60
2016-09-13T05:42:44.312Z,60
2016-09-13T05:43:44.628Z,65
2016-09-13T05:44:44.314Z,65
2016-09-13T05:45:44.334Z,65
2016-09-13T05:46:44.324Z,65
2016-09-13T05:47:44.314Z,65
2016-09-13T05:48:59.391Z,70
2016-09-13T05:49:44.307Z,70
2016-09-13T05:50:44.297Z,70
2016-09-13T05:51:44.497Z,70
2016-09-13T05:52:44.285Z,70
2016-09-13T05:53:44.281Z,70
2016-09-13T05:54:44.287Z,75
2016-09-13T05:55:44.713Z,75
2016-09-13T05:56:44.279Z,75
2016-09-13T05:57:44.281Z,75
2016-09-13T05:58:44.273Z,75
2016-09-13T05:59:44.296Z,75
2016-09-13T06:00:44.261Z,75
2016-09-13T06:01:44.261Z,80
2016-09-13T06:02:44.258Z,80
2016-09-13T06:03:44.264Z,80
2016-09-13T06:04:44.272Z,80
2016-09-13T06:05:44.578Z,80
2016-09-13T06:06:44.263Z,80
2016-09-13T06:07:44.249Z,80
2016-09-13T06:08:44.258Z,80
2016-09-13T06:09:44.240Z,85
2016-09-13T06:10:44.238Z,85
2016-09-13T06:11:44.244Z,85
2016-09-13T06:12:44.242Z,85
2016-09-13T06:13:44.223Z,85
2016-09-13T06:14:44.231Z,85
2016-09-13T06:15:44.230Z,85
2016-09-13T06:16:44.219Z,85
2016-09-13T06:17:44.220Z,85
2016-09-13T06:18:44.270Z,90
2016-09-13T06:19:44.210Z,90
2016-09-13T06:20:44.197Z,90
2016-09-13T06:21:44.200Z,90
2016-09-13T06:22:44.521Z,90
2016-09-13T06:23:44.192Z,90
2016-09-13T06:24:44.195Z,90
2016-09-13T06:25:44.200Z,90
2016-09-13T06:26:44.192Z,90
2016-09-13T06:27:44.205Z,90
2016-09-13T06:28:44.201Z,95
2016-09-13T06:29:44.185Z,95
2016-09-13T06:30:44.174Z,95
2016-09-13T06:31:44.182Z,95
2016-09-13T06:32:44.173Z,95
2016-09-13T06:33:44.173Z,95
2016-09-13T06:34:44.163Z,95
2016-09-13T06:35:44.183Z,95
2016-09-13T06:36:44.157Z,95
2016-09-13T06:37:44.509Z,95
2016-09-13T06:38:44.169Z,95
2016-09-13T06:39:44.179Z,100
2016-09-13T06:40:44.466Z,100
2016-09-13T06:41:44.155Z,100
2016-09-13T06:42:44.148Z,100
2016-09-13T06:43:44.146Z,100
2016-09-13T06:44:44.156Z,100
2016-09-13T06:45:44.185Z,100
2016-09-13T06:46:44.148Z,100
2016-09-13T06:47:44.148Z,100
2016-09-13T06:48:44.141Z,100
2016-09-13T06:49:44.153Z,105
2016-09-13T06:50:44.465Z,105
2016-09-13T06:51:44.125Z,105
2016-09-13T06:52:44.131Z,105
2016-09-13T06:53:44.126Z,105
2016-09-13T06:54:44.129Z,105
2016-09-13T06:55:44.140Z,105
2016-09-13T06:56:44.126Z,105
2016-09-13T06:57:44.130Z,105
2016-09-13T06:58:44.120Z,105
2016-09-13T06:59:44.129Z,105
2016-09-13T07:00:44.133Z,105
2016-09-13T07:01:44.110Z,110
2016-09-13T07:02:44.117Z,110
2016-09-13T07:03:44.421Z,110
2016-09-13T07:04:44.124Z,110
2016-09-13T07:05:44.109Z,110
2016-09-13T07:06:44.108Z,110
2016-09-13T07:07:44.112Z,110
2016-09-13T07:08:44.106Z,110
2016-09-13T07:09:44.111Z,110
2016-09-13T07:10:44.118Z,110
2016-09-13T07:11:44.108Z,110
2016-09-13T07:12:44.118Z,115
2016-09-13T07:13:44.125Z,115
2016-09-13T07:14:44.104Z,115
2016-09-13T07:15:44.106Z,115
2016-09-13T07:16:44.097Z,115
2016-09-13T07:17:44.096Z,115
2016-09-13T07:18:44.091Z,115
2016-09-13T07:19:44.172Z,115
2016-09-13T07:20:44.090Z,115
2016-09-13T07:21:44.097Z,115
2016-09-13T07:22:44.098Z,115
2016-09-13T07:23:44.134Z,115
2016-09-13T07:24:44.104Z,115
2016-09-13T07:25:44.423Z,115
2016-09-13T07:26:44.099Z,115
2016-09-13T07:27:44.089Z,115
2016-09-13T07:28:44.077Z,115
2016-09-13T07:29:44.407Z,120
2016-09-13T07:30:44.097Z,120
2016-09-13T07:31:44.102Z,120
2016-09-13T07:32:44.086Z,120
2016-09-13T07:33:44.097Z,120
2016-09-13T07:34:44.085Z,120
2016-09-13T07:35:44.077Z,120
2016-09-13T07:36:44.090Z,120
2016-09-13T07:37:44.087Z,120
2016-09-13T07:38:44.103Z,120
2016-09-13T07:39:44.419Z,120
2016-09-13T07:40:44.080Z,120
2016-09-13T07:41:44.097Z,120
2016-09-13T07:42:44.080Z,120
2016-09-13T07:43:44.084Z,120
2016-09-13T07:44:44.093Z,120
2016-09-13T07:45:44.088Z,125
2016-09-13T07:46:44.079Z,125
2016-09-13T07:47:44.085Z,125
2016-09-13T07:48:44.098Z,125
2016-09-13T07:49:44.087Z,120
2016-09-13T07:50:44.089Z,120
2016-09-13T07:51:44.122Z,120
2016-09-13T07:52:44.100Z,120
2016-09-13T07:53:44.079Z,120
2016-09-13T07:54:44.087Z,120
2016-09-13T07:55:44.084Z,120
2016-09-13T07:56:44.093Z,120
2016-09-13T07:57:44.106Z,120
2016-09-13T07:58:44.099Z,120
2016-09-13T07:59:44.096Z,120
2016-09-13T08:00:44.087Z,120
2016-09-13T08:01:44.424Z,120
2016-09-13T08:02:44.088Z,120
2016-09-13T08:03:44.100Z,120
2016-09-13T08:04:44.418Z,120
2016-09-13T08:05:44.097Z,120
2016-09-13T08:06:44.109Z,120
2016-09-13T08:07:44.108Z,120
2016-09-13T08:08:44.130Z,120
2016-09-13T08:09:44.450Z,120
2016-09-13T08:10:44.432Z,120
2016-09-13T08:11:44.096Z,120
2016-09-13T08:12:44.099Z,120
2016-09-13T08:13:44.145Z,120
2016-09-13T08:14:44.488Z,120
2016-09-13T08:15:44.094Z,120
2016-09-13T08:16:44.106Z,120
2016-09-13T08:17:44.112Z,120
2016-09-13T08:18:44.107Z,120
2016-09-13T08:19:44.113Z,120
2016-09-13T08:20:44.113Z,120
2016-09-13T08:21:44.118Z,120
2016-09-13T08:22:44.117Z,120
2016-09-13T08:23:44.118Z,120
2016-09-13T08:24:44.130Z,125
2016-09-13T08:25:44.143Z,125
2016-09-13T08:26:44.147Z,125
2016-09-13T08:27:44.128Z,125
2016-09-13T08:28:44.129Z,125
2016-09-13T08:29:44.128Z,125
2016-09-13T08:30:44.153Z,125
2016-09-13T08:31:44.141Z,125
2016-09-13T08:32:44.139Z,125
2016-09-13T08:33:44.132Z,125
2016-09-13T08:34:44.135Z,125
2016-09-13T08:35:44.162Z,120
2016-09-13T08:36:44.146Z,120
2016-09-13T08:37:44.141Z,120
2016-09-13T08:38:44.163Z,120
2016-09-13T08:39:44.145Z,120
2016-09-13T08:40:44.156Z,120
2016-09-13T08:41:44.462Z,120
2016-09-13T08:42:44.160Z,120
2016-09-13T08:43:44.169Z,120
2016-09-13T08:44:44.159Z,120
2016-09-13T08:45:44.166Z,120
2016-09-13T08:46:44.504Z,120
2016-09-13T08:47:44.169Z,120
2016-09-13T08:48:44.173Z,120
2016-09-13T08:49:44.167Z,120
2016-09-13T08:50:44.173Z,120
2016-09-13T08:51:44.173Z,120
2016-09-13T08:52:44.163Z,120
2016-09-13T08:53:44.493Z,120
2016-09-13T08:54:44.168Z,120
2016-09-13T08:55:44.179Z,120
2016-09-13T08:56:44.167Z,120
2016-09-13T08:57:44.176Z,120
2016-09-13T08:58:44.175Z,120
2016-09-13T08:59:44.185Z,120
2016-09-13T09:00:44.193Z,120
2016-09-13T09:01:44.198Z,120
2016-09-13T09:02:44.198Z,120
2016-09-13T09:03:44.179Z,120
2016-09-13T09:04:44.189Z,125
2016-09-13T09:05:44.204Z,125
2016-09-13T09:06:44.522Z,120
2016-09-13T09:07:44.192Z,120
2016-09-13T09:08:44.199Z,120
2016-09-13T09:09:44.198Z,120
2016-09-13T09:10:44.194Z,120
2016-09-13T09:11:44.205Z,120
2016-09-13T09:12:44.199Z,120
2016-09-13T09:13:44.208Z,120
2016-09-13T09:14:44.220Z,120
2016-09-13T09:15:44.211Z,120
2016-09-13T09:16:44.208Z,120
2016-09-13T09:17:44.222Z,120
2016-09-13T09:18:44.220Z,120
2016-09-13T09:19:44.234Z,120
2016-09-13T09:20:44.236Z,120
2016-09-13T09:21:44.559Z,120
2016-09-13T09:22:44.241Z,120
2016-09-13T09:23:44.235Z,120
2016-09-13T09:24:44.243Z,120
2016-09-13T09:25:44.557Z,120
2016-09-13T09:26:44.577Z,120
2016-09-13T09:27:44.259Z,120
2016-09-13T09:28:44.257Z,125
2016-09-13T09:29:44.264Z,120
2016-09-13T09:30:44.279Z,120
2016-09-13T09:31:44.259Z,120
2016-09-13T09:32:44.259Z,120
2016-09-13T09:33:44.291Z,125
2016-09-13T09:34:44.262Z,125
2016-09-13T09:35:44.269Z,125
2016-09-13T09:36:44.280Z,125
2016-09-13T09:37:44.287Z,125
2016-09-13T09:38:44.301Z,130
2016-09-13T09:39:44.294Z,130
2016-09-13T09:40:44.293Z,140
2016-09-13T09:41:44.288Z,140
2016-09-13T09:42:44.296Z,145
2016-09-13T09:43:44.300Z,150
2016-09-13T09:44:44.310Z,155
2016-09-13T09:45:44.332Z,155
2016-09-13T09:46:44.316Z,150
2016-09-13T09:47:44.339Z,150
2016-09-13T09:48:44.320Z,155
2016-09-13T09:49:44.322Z,165
2016-09-13T09:50:44.330Z,150
2016-09-13T09:51:44.337Z,160
2016-09-13T09:52:44.329Z,140
2016-09-13T09:53:44.342Z,145
2016-09-13T09:54:44.336Z,150
2016-09-13T09:55:44.344Z,155
2016-09-13T09:56:44.363Z,150
2016-09-13T09:57:44.352Z,140
2016-09-13T09:58:44.349Z,150
2016-09-13T09:59:44.352Z,155
2016-09-13T10:00:44.357Z,155
2016-09-13T10:01:44.989Z,150
2016-09-13T10:02:44.681Z,150
2016-09-13T10:03:44.682Z,140
2016-09-13T10:04:44.386Z,150
2016-09-13T10:05:44.370Z,140
2016-09-13T10:06:44.372Z,140
2016-09-13T10:07:44.383Z,140
2016-09-13T10:08:44.384Z,150
2016-09-13T10:09:44.705Z,160
2016-09-13T10:10:44.400Z,175
2016-09-13T10:11:44.396Z,180
2016-09-13T10:12:44.405Z,180
2016-09-13T10:13:44.416Z,175
2016-09-13T10:14:44.403Z,170
2016-09-13T10:15:44.404Z,170
2016-09-13T10:16:44.408Z,175
2016-09-13T10:17:44.408Z,175
2016-09-13T10:18:44.446Z,175
2016-09-13T10:19:44.628Z,175
2016-09-13T10:20:44.434Z,170
2016-09-13T10:21:44.432Z,175
2016-09-13T10:22:44.443Z,185
2016-09-13T10:23:44.451Z,175
2016-09-13T10:24:44.469Z,185
2016-09-13T10:25:44.473Z,195
2016-09-13T10:26:44.446Z,210
2016-09-13T10:27:44.478Z,225
2016-09-13T10:28:44.457Z,245
2016-09-13T10:29:44.464Z,265
2016-09-13T10:30:44.472Z,265
2016-09-13T10:31:44.494Z,270
2016-09-13T10:32:44.474Z,265
2016-09-13T10:33:44.481Z,260
2016-09-13T10:34:44.482Z,255
2016-09-13T10:35:44.483Z,260
2016-09-13T10:36:44.494Z,265
2016-09-13T10:37:44.494Z,270
2016-09-13T10:38:44.837Z,265
2016-09-13T10:39:44.508Z,255
2016-09-13T10:40:44.514Z,250
2016-09-13T10:41:44.533Z,245
2016-09-13T10:42:44.533Z,235
2016-09-13T10:43:44.579Z,230
2016-09-13T10:44:44.650Z,220
2016-09-13T10:45:44.587Z,215
2016-09-13T10:46:44.552Z,215
2016-09-13T10:47:44.621Z,215
2016-09-13T10:48:44.547Z,210
2016-09-13T10:49:44.547Z,210
2016-09-13T10:50:44.557Z,205
2016-09-13T10:51:44.551Z,205
2016-09-13T10:52:45.201Z,205
2016-09-13T10:53:44.570Z,205
2016-09-13T10:54:44.573Z,210
2016-09-13T10:55:44.571Z,215
2016-09-13T10:56:44.581Z,215
2016-09-13T10:57:44.581Z,220
2016-09-13T10:58:44.582Z,220
2016-09-13T10:59:44.591Z,210
2016-09-13T11:00:44.614Z,210
2016-09-13T11:01:44.608Z,215
2016-09-13T11:02:44.604Z,210
2016-09-13T11:03:44.938Z,195
2016-09-13T11:04:44.976Z,190
2016-09-13T11:05:44.626Z,205
2016-09-13T11:06:44.946Z,200
2016-09-13T11:07:45.154Z,200
2016-09-13T11:08:44.626Z,200
2016-09-13T11:09:44.634Z,195
2016-09-13T11:10:44.640Z,190
2016-09-13T11:11:44.641Z,190
2016-09-13T11:12:44.655Z,180
2016-09-13T11:13:44.653Z,170
2016-09-13T11:14:44.659Z,165
2016-09-13T11:15:44.671Z,170
2016-09-13T11:16:44.990Z,170
2016-09-13T11:17:44.690Z,170
2016-09-13T11:18:44.689Z,175
2016-09-13T11:19:45.065Z,180
2016-09-13T11:20:44.699Z,185
2016-09-13T11:21:44.718Z,195
2016-09-13T11:22:44.715Z,205
2016-09-13T11:23:44.725Z,215
2016-09-13T11:24:44.722Z,230
2016-09-13T11:25:44.706Z,240
2016-09-13T11:26:44.720Z,245
2016-09-13T11:27:44.719Z,265
2016-09-13T11:28:44.720Z,270
2016-09-13T11:29:44.728Z,275
2016-09-13T11:30:44.739Z,270
2016-09-13T11:31:44.753Z,265
2016-09-13T11:32:44.761Z,265
2016-09-13T11:33:44.769Z,260
2016-09-13T11:34:44.778Z,260
2016-09-13T11:35:44.768Z,265
2016-09-13T11:36:44.795Z,260
2016-09-13T11:37:44.774Z,265
2016-09-13T11:38:44.784Z,265
2016-09-13T11:39:44.792Z,265
2016-09-13T11:40:44.796Z,270
2016-09-13T11:41:45.134Z,280
2016-09-13T11:42:44.810Z,290
2016-09-13T11:43:44.818Z,295
2016-09-13T11:44:44.818Z,290
2016-09-13T11:45:44.842Z,300
2016-09-13T11:46:44.827Z,300
2016-09-13T11:47:44.834Z,300
2016-09-13T11:48:44.860Z,305
2016-09-13T11:49:44.842Z,310
2016-09-13T11:50:44.856Z,310
2016-09-13T11:51:44.864Z,315
2016-09-13T11:52:44.877Z,305
2016-09-13T11:53:44.898Z,300
2016-09-13T11:54:44.882Z,290
2016-09-13T11:55:44.892Z,285
2016-09-13T11:56:44.898Z,290
2016-09-13T11:57:44.904Z,285
2016-09-13T11:58:44.934Z,285
2016-09-13T11:59:44.923Z,285
2016-09-13T12:00:44.928Z,280
2016-09-13T12:01:44.929Z,270
2016-09-13T12:02:44.913Z,255
2016-09-13T12:03:44.927Z,245
2016-09-13T12:04:44.933Z,235
2016-09-13T12:05:44.943Z,220
2016-09-13T12:06:44.933Z,210
2016-09-13T12:07:44.947Z,200
2016-09-13T12:08:45.559Z,195
2016-09-13T12:09:44.968Z,200
2016-09-13T12:10:44.963Z,205
2016-09-13T12:11:44.969Z,215
2016-09-13T12:12:45.000Z,225
2016-09-13T12:13:44.978Z,235
2016-09-13T12:14:44.986Z,250
2016-09-13T12:15:44.990Z,255
2016-09-13T12:16:45.005Z,255
2016-09-13T12:17:45.007Z,260
2016-09-13T12:18:44.999Z,260
2016-09-13T12:19:45.060Z,255
2016-09-13T12:20:45.046Z,255
2016-09-13T12:21:45.016Z,260
2016-09-13T12:22:45.338Z,265
2016-09-13T12:23:45.027Z,260
2016-09-13T12:24:45.023Z,255
2016-09-13T12:25:45.036Z,265
2016-09-13T12:26:45.044Z,280
2016-09-13T12:27:45.042Z,290
2016-09-13T12:28:45.057Z,305
2016-09-13T12:29:45.054Z,315
2016-09-13T12:30:45.083Z,320
2016-09-13T12:31:45.072Z,320
2016-09-13T12:32:45.084Z,335
2016-09-13T12:33:45.077Z,340
2016-09-13T12:34:45.096Z,340
2016-09-13T12:35:45.090Z,340
2016-09-13T12:36:45.238Z,345
2016-09-13T12:37:45.104Z,340
2016-09-13T12:38:45.233Z,330
2016-09-13T12:39:45.225Z,315
2016-09-13T12:40:45.227Z,300
2016-09-13T12:41:45.237Z,285
2016-09-13T12:42:45.259Z,280
2016-09-13T12:43:45.249Z,275
2016-09-13T12:44:45.546Z,260
2016-09-13T12:45:45.236Z,250
2016-09-13T12:46:45.278Z,235
2016-09-13T12:47:45.244Z,230
2016-09-13T12:48:45.377Z,225
2016-09-13T12:49:45.400Z,220
2016-09-13T12:50:45.383Z,220
2016-09-13T12:51:45.387Z,220
2016-09-13T12:52:45.409Z,220
2016-09-13T12:53:45.394Z,215
2016-09-13T12:54:45.400Z,210
2016-09-13T12:55:45.416Z,215
2016-09-13T12:56:45.437Z,220
2016-09-13T12:57:45.376Z,225
2016-09-13T12:58:45.375Z,240
2016-09-13T12:59:45.386Z,245
2016-09-13T13:00:45.412Z,250
2016-09-13T13:01:45.393Z,250
2016-09-13T13:02:45.509Z,245
2016-09-13T13:03:45.521Z,245
2016-09-13T13:04:45.528Z,255
2016-09-13T13:05:45.537Z,250
2016-09-13T13:06:45.529Z,260
2016-09-13T13:07:45.557Z,250
2016-09-13T13:08:45.559Z,235
2016-09-13T13:09:45.566Z,215
2016-09-13T13:10:45.447Z,210
2016-09-13T13:11:45.568Z,210
2016-09-13T13:12:45.603Z,205
2016-09-13T13:13:45.581Z,200
2016-09-13T13:14:45.507Z,190
2016-09-13T13:15:45.493Z,175
2016-09-13T13:16:45.512Z,160
2016-09-13T13:17:45.503Z,165
2016-09-13T13:18:45.543Z,155
2016-09-13T13:19:45.552Z,145
2016-09-13T13:20:45.543Z,140
2016-09-13T13:21:45.540Z,135
2016-09-13T13:22:45.552Z,135
2016-09-13T13:23:45.707Z,140
2016-09-13T13:24:45.581Z,135
2016-09-13T13:25:45.572Z,130
2016-09-13T13:26:45.581Z,130
2016-09-13T13:27:45.559Z,130
2016-09-13T13:28:45.577Z,135
2016-09-13T13:29:45.577Z,135
2016-09-13T13:30:45.585Z,140
2016-09-13T13:31:45.904Z,135
2016-09-13T13:32:45.597Z,135
2016-09-13T13:33:45.530Z,125
2016-09-13T13:34:45.549Z,120
2016-09-13T13:35:45.544Z,115
2016-09-13T13:36:45.570Z,115
2016-09-13T13:37:45.553Z,115
2016-09-13T13:38:45.579Z,115
2016-09-13T13:39:45.573Z,115
2016-09-13T13:40:45.577Z,115
2016-09-13T13:41:45.563Z,115
2016-09-13T13:42:45.562Z,110
2016-09-13T13:43:45.569Z,110
2016-09-13T13:44:45.601Z,110
2016-09-13T13:45:45.588Z,110
2016-09-13T13:46:45.587Z,110
2016-09-13T13:47:45.605Z,115
2016-09-13T13:48:45.612Z,115
2016-09-13T13:49:45.640Z,120
2016-09-13T13:50:45.741Z,125
2016-09-13T13:51:45.636Z,125
2016-09-13T13:52:45.536Z,125
2016-09-13T13:53:45.541Z,130
2016-09-13T13:54:45.811Z,130
2016-09-13T13:55:45.545Z,130
2016-09-13T13:56:45.578Z,130
2016-09-13T13:57:45.577Z,135
2016-09-13T13:58:45.711Z,140
2016-09-13T13:59:45.590Z,140
2016-09-13T14:00:45.602Z,145
2016-09-13T14:01:45.836Z,150
2016-09-13T14:02:45.617Z,155
2016-09-13T14:03:45.609Z,160
2016-09-13T14:04:45.628Z,155
2016-09-13T14:05:45.584Z,155
2016-09-13T14:06:45.606Z,155
2016-09-13T14:07:45.627Z,155
2016-09-13T14:08:45.612Z,155
2016-09-13T14:09:45.620Z,160